Beaulieu, Minnesota
Current Conditions -  °F | °C
As of 12:55 AM on Sunday 26 Oct 2014 (Local Time) from K3N8 Reporting Station
Clear Clear  
Wind Chill: 28°   Ceiling: Unl
Heat Index: 34°   Visibility: 10mi
Dew Point: 24°   Wind: 7mph
Humidity: 67%   Direction: 190°S
Pressure: 30"   Gusts: NA
Location:  47.3584°N, 95.8016°W
Report Text: K3N8 260555Z AUTO 19006KT 10SM CLR 01/M04 A3000 RMK AO2 T00111045 10089 20005
Loading
Personal Weather Stations






























Interactive Weather Map
Tropical Storm Tracking
New forecast layout! Learn more

10-Day Weather Forecast

Advertisements
Track Severe Weather on mobile